Angoon, Alaska
Current Conditions -  °F | °C
As of 10:56 AM on Sunday 25 Jan 2015 (Local Time) from PAGN Reporting Station
Few Clouds Few Clouds  
Wind Chill: 39°   Ceiling: Unl
Heat Index: 44°   Visibility: 10mi
Dew Point: 37°   Wind: 8mph
Humidity: 76%   Direction: 180°S
Pressure: 29.7"   Gusts: 20mph
Location:  57.5°N, 134.59°W
Report Text: PAGN 251956Z AUTO 18007G17KT 150V230 10SM FEW095 07/03 A2970 RMK AO2 TSNO T00660027 SLP062 $
Loading
Personal Weather Stations






























Interactive Weather Map New forecast layout! Learn more

10-Day Weather Forecast

Advertisements
Track Severe Weather on mobile